Time;durP1;ratioP1;P1;durP2;ratioP2;P2;SDS_P1;SDS_P2;PMS_P1;PMS_P2;Temp;Humidity;BMP_temperature;BMP_pressure;BME280_temperature;BME280_humidity;BME280_pressure;Samples;Min_cycle;Max_cycle;Signal;HPM_P1;HPM_P2
2023/05/11 00:02:21;;;;;;;10.55;9.57;;;;;;;;;;5283439;28;20040;-76
2023/05/11 00:04:52;;;;;;;10.38;9.38;;;;;;;;;;5283634;28;20012;-76
2023/05/11 00:07:24;;;;;;;10.18;9.27;;;;;;;;;;5283163;28;20027;-76
2023/05/11 00:09:55;;;;;;;10.20;9.30;;;;;;;;;;5283530;28;20017;-76
2023/05/11 00:12:26;;;;;;;11.60;10.27;;;;;;;;;;5283683;28;20016;-76
2023/05/11 00:14:57;;;;;;;11.05;10.05;;;;;;;;;;5282525;28;20286;-76
2023/05/11 00:17:28;;;;;;;10.32;9.38;;;;;;;;;;5283909;28;20020;-76
2023/05/11 00:20:00;;;;;;;10.60;9.70;;;;;;;;;;5283235;28;20021;-76
2023/05/11 00:22:31;;;;;;;11.00;9.55;;;;;;;;;;5282876;28;20021;-76
2023/05/11 00:25:03;;;;;;;10.43;9.50;;;;;;;;;;5283210;28;20031;-76
2023/05/11 00:27:34;;;;;;;11.32;10.25;;;;;;;;;;5283530;28;20016;-76
2023/05/11 00:30:06;;;;;;;11.27;10.23;;;;;;;;;;5282549;28;20020;-76
2023/05/11 00:32:37;;;;;;;11.40;10.23;;;;;;;;;;5283196;28;20024;-76
2023/05/11 00:35:11;;;;;;;12.52;11.43;;;;;;;;;;5283152;28;20032;-77
2023/05/11 00:37:42;;;;;;;12.65;11.55;;;;;;;;;;5282106;28;20016;-76
2023/05/11 00:40:14;;;;;;;13.38;12.02;;;;;;;;;;5283544;28;20095;-77
2023/05/11 00:42:45;;;;;;;13.60;12.15;;;;;;;;;;5282077;28;20047;-77
2023/05/11 00:45:16;;;;;;;12.60;11.20;;;;;;;;;;5283263;28;20020;-76
2023/05/11 00:47:47;;;;;;;14.65;13.15;;;;;;;;;;5282411;28;20269;-76
2023/05/11 00:50:19;;;;;;;13.67;12.27;;;;;;;;;;5282442;28;20083;-76
2023/05/11 00:52:50;;;;;;;14.05;12.57;;;;;;;;;;5282723;28;20263;-76
2023/05/11 00:55:22;;;;;;;12.98;11.77;;;;;;;;;;5283228;28;20033;-76
2023/05/11 00:57:53;;;;;;;13.15;11.98;;;;;;;;;;5281478;28;20117;-76
2023/05/11 01:00:24;;;;;;;14.35;12.90;;;;;;;;;;5282759;28;20024;-76
2023/05/11 01:02:56;;;;;;;14.20;12.90;;;;;;;;;;5282481;28;20019;-76
2023/05/11 01:05:47;;;;;;;15.30;13.73;;;;;;;;;;5282280;28;20012;-77
2023/05/11 01:08:25;;;;;;;14.65;13.18;;;;;;;;;;5275581;28;20463;-76
2023/05/11 01:11:16;;;;;;;14.35;12.32;;;;;;;;;;5281291;28;20035;-76
2023/05/11 01:13:50;;;;;;;19.67;12.50;;;;;;;;;;5282290;28;20028;-76
2023/05/11 01:16:24;;;;;;;15.45;13.40;;;;;;;;;;5282732;28;20028;-76
2023/05/11 01:19:09;;;;;;;15.43;12.80;;;;;;;;;;5281107;28;20020;-76
2023/05/11 01:21:41;;;;;;;14.07;12.68;;;;;;;;;;5282233;28;20070;-77
2023/05/11 01:24:28;;;;;;;16.00;13.15;;;;;;;;;;5282052;28;20048;-76
2023/05/11 01:27:02;;;;;;;14.50;13.05;;;;;;;;;;5281177;28;20035;-76
2023/05/11 01:29:36;;;;;;;14.55;13.00;;;;;;;;;;5282081;28;20028;-77
2023/05/11 01:32:33;;;;;;;15.05;13.50;;;;;;;;;;5281347;28;20009;-77
2023/05/11 01:35:07;;;;;;;14.70;13.27;;;;;;;;;;5279573;28;20040;-77
2023/05/11 01:37:40;;;;;;;14.57;13.18;;;;;;;;;;5281677;28;20023;-77
2023/05/11 01:40:13;;;;;;;15.85;14.15;;;;;;;;;;5281179;28;20029;-77
2023/05/11 01:42:47;;;;;;;17.63;14.82;;;;;;;;;;5281831;28;20024;-77
2023/05/11 01:45:19;;;;;;;15.40;13.80;;;;;;;;;;5282420;28;20035;-77
2023/05/11 01:47:51;;;;;;;17.73;15.77;;;;;;;;;;5280770;28;20109;-77
2023/05/11 01:50:24;;;;;;;17.15;14.68;;;;;;;;;;5282132;28;20537;-78
2023/05/11 01:52:55;;;;;;;15.75;14.27;;;;;;;;;;5280692;28;20012;-76
2023/05/11 01:55:27;;;;;;;17.45;15.57;;;;;;;;;;5282276;28;20082;-77
2023/05/11 01:57:59;;;;;;;19.05;15.35;;;;;;;;;;5281355;28;20491;-76
2023/05/11 02:00:32;;;;;;;16.67;14.82;;;;;;;;;;5280964;28;20026;-77
2023/05/11 02:03:05;;;;;;;17.25;14.65;;;;;;;;;;5282233;28;20013;-77
2023/05/11 02:05:37;;;;;;;17.17;15.38;;;;;;;;;;5281870;28;20028;-77
2023/05/11 02:08:09;;;;;;;17.98;15.77;;;;;;;;;;5281315;28;20016;-76
2023/05/11 02:10:41;;;;;;;18.85;15.68;;;;;;;;;;5281376;28;20024;-76
2023/05/11 02:13:14;;;;;;;18.05;16.20;;;;;;;;;;5281911;28;20009;-77
2023/05/11 02:15:46;;;;;;;18.10;16.20;;;;;;;;;;5280617;28;20119;-77
2023/05/11 02:18:18;;;;;;;18.88;16.92;;;;;;;;;;5281987;28;20087;-77
2023/05/11 02:20:49;;;;;;;20.45;17.10;;;;;;;;;;5280306;28;20040;-77
2023/05/11 02:23:23;;;;;;;22.75;17.58;;;;;;;;;;5281032;28;20456;-77
2023/05/11 02:25:55;;;;;;;19.45;17.55;;;;;;;;;;5281226;28;20021;-77
2023/05/11 02:28:26;;;;;;;21.05;17.95;;;;;;;;;;5281231;28;20019;-77
2023/05/11 02:31:00;;;;;;;21.35;19.10;;;;;;;;;;5281212;28;20024;-76
2023/05/11 02:33:33;;;;;;;21.55;18.83;;;;;;;;;;5281394;28;20032;-77
2023/05/11 02:36:05;;;;;;;24.27;20.70;;;;;;;;;;5283795;28;20379;-76
2023/05/11 02:38:36;;;;;;;21.92;19.75;;;;;;;;;;5285508;28;20017;-76
2023/05/11 02:41:11;;;;;;;22.67;20.38;;;;;;;;;;5285616;28;20023;-76
2023/05/11 02:43:48;;;;;;;22.27;19.95;;;;;;;;;;5284284;28;20074;-76
2023/05/11 02:46:20;;;;;;;24.00;19.98;;;;;;;;;;5285613;28;20021;-76
2023/05/11 02:48:54;;;;;;;23.13;20.60;;;;;;;;;;5284834;28;20112;-76
2023/05/11 02:51:28;;;;;;;24.67;20.83;;;;;;;;;;5284886;28;20100;-76
2023/05/11 02:53:59;;;;;;;22.95;19.98;;;;;;;;;;5285039;28;20021;-76
2023/05/11 02:56:30;;;;;;;22.92;20.48;;;;;;;;;;5284327;28;20032;-76
2023/05/11 02:59:02;;;;;;;23.02;20.75;;;;;;;;;;5285022;28;20024;-76
2023/05/11 03:01:33;;;;;;;22.77;20.05;;;;;;;;;;5285041;28;20493;-76
2023/05/11 03:04:04;;;;;;;21.48;19.17;;;;;;;;;;5284338;28;20066;-76
2023/05/11 03:06:36;;;;;;;23.55;21.10;;;;;;;;;;5285080;28;20090;-76
2023/05/11 03:09:07;;;;;;;24.80;21.80;;;;;;;;;;5284982;28;20028;-76
2023/05/11 03:11:39;;;;;;;23.90;21.38;;;;;;;;;;5283787;28;20020;-76
2023/05/11 03:14:10;;;;;;;24.83;21.98;;;;;;;;;;5285004;28;20020;-76
2023/05/11 03:16:42;;;;;;;25.00;21.13;;;;;;;;;;5284395;28;20383;-76
2023/05/11 03:19:13;;;;;;;23.20;20.65;;;;;;;;;;5284312;28;20017;-76
2023/05/11 03:21:45;;;;;;;24.67;22.00;;;;;;;;;;5284296;28;20021;-76
2023/05/11 03:24:16;;;;;;;24.67;22.15;;;;;;;;;;5284317;28;20345;-76
2023/05/11 03:26:49;;;;;;;24.65;22.17;;;;;;;;;;5284382;28;20464;-76
2023/05/11 03:29:21;;;;;;;28.92;23.20;;;;;;;;;;5285235;28;20073;-76
2023/05/11 03:31:53;;;;;;;27.17;23.10;;;;;;;;;;5283437;28;20036;-76
2023/05/11 03:34:24;;;;;;;25.70;23.08;;;;;;;;;;5284672;28;20021;-76
2023/05/11 03:36:56;;;;;;;23.42;20.98;;;;;;;;;;5284084;28;20033;-76
2023/05/11 03:39:28;;;;;;;25.40;21.42;;;;;;;;;;5283823;28;20078;-76
2023/05/11 03:42:00;;;;;;;23.30;21.08;;;;;;;;;;5284090;28;20021;-76
2023/05/11 03:44:32;;;;;;;23.75;21.33;;;;;;;;;;5284086;28;20025;-76
2023/05/11 03:47:04;;;;;;;24.20;21.70;;;;;;;;;;5282445;28;20471;-76
2023/05/11 03:49:36;;;;;;;24.48;21.88;;;;;;;;;;5284261;28;20028;-76
2023/05/11 03:52:07;;;;;;;25.23;22.55;;;;;;;;;;5284037;28;20468;-76
2023/05/11 03:54:40;;;;;;;26.20;23.40;;;;;;;;;;5283027;28;20019;-76
2023/05/11 03:57:12;;;;;;;25.75;23.00;;;;;;;;;;5283798;28;20131;-76
2023/05/11 03:59:43;;;;;;;26.42;23.65;;;;;;;;;;5282640;28;20354;-76
2023/05/11 04:02:15;;;;;;;26.27;22.83;;;;;;;;;;5284202;28;20024;-76
2023/05/11 04:04:46;;;;;;;23.67;21.20;;;;;;;;;;5283544;28;20016;-76
2023/05/11 04:07:17;;;;;;;24.63;22.03;;;;;;;;;;5283152;28;20031;-76
2023/05/11 04:09:48;;;;;;;25.15;22.58;;;;;;;;;;5283489;28;20341;-76
2023/05/11 04:12:20;;;;;;;26.25;23.33;;;;;;;;;;5283961;28;20021;-76
2023/05/11 04:14:51;;;;;;;26.70;23.17;;;;;;;;;;5282315;28;20027;-76
2023/05/11 04:17:22;;;;;;;29.38;24.42;;;;;;;;;;5283743;28;20494;-77
2023/05/11 04:19:53;;;;;;;28.55;24.45;;;;;;;;;;5283159;28;20618;-76
2023/05/11 04:22:25;;;;;;;28.47;25.13;;;;;;;;;;5282908;28;20117;-76
2023/05/11 04:24:56;;;;;;;28.20;25.20;;;;;;;;;;5283212;28;20267;-77
2023/05/11 04:27:27;;;;;;;30.07;25.93;;;;;;;;;;5283842;28;20099;-77
2023/05/11 04:29:58;;;;;;;31.08;26.10;;;;;;;;;;5282047;28;20262;-77
2023/05/11 04:32:30;;;;;;;30.77;26.23;;;;;;;;;;5283788;28;20021;-77
2023/05/11 04:35:01;;;;;;;30.65;26.48;;;;;;;;;;5282313;28;20015;-76
2023/05/11 04:37:32;;;;;;;30.55;26.13;;;;;;;;;;5283267;28;20024;-77
2023/05/11 04:40:04;;;;;;;28.90;25.75;;;;;;;;;;5282984;28;20026;-76
2023/05/11 04:42:35;;;;;;;33.10;27.17;;;;;;;;;;5282486;28;20467;-76
2023/05/11 04:45:06;;;;;;;34.03;29.67;;;;;;;;;;5282790;28;20016;-77
2023/05/11 04:47:37;;;;;;;33.80;28.30;;;;;;;;;;5282669;28;20316;-77
2023/05/11 04:50:09;;;;;;;36.85;29.42;;;;;;;;;;5282350;28;20086;-77
2023/05/11 04:52:40;;;;;;;34.47;29.50;;;;;;;;;;5282494;28;20263;-77
2023/05/11 04:55:11;;;;;;;34.50;28.30;;;;;;;;;;5283030;28;20054;-77
2023/05/11 04:57:42;;;;;;;33.55;28.73;;;;;;;;;;5280819;28;20313;-77
2023/05/11 05:00:14;;;;;;;36.93;29.50;;;;;;;;;;5282760;28;20020;-77
2023/05/11 05:02:45;;;;;;;36.25;29.38;;;;;;;;;;5281444;28;20277;-77
2023/05/11 05:05:16;;;;;;;33.28;29.10;;;;;;;;;;5283181;28;20535;-77
2023/05/11 05:07:48;;;;;;;35.75;30.05;;;;;;;;;;5282286;28;20021;-78
2023/05/11 05:10:19;;;;;;;31.93;27.63;;;;;;;;;;5282070;28;20028;-78
2023/05/11 05:12:50;;;;;;;34.70;29.25;;;;;;;;;;5282396;28;20345;-78
2023/05/11 05:15:21;;;;;;;36.40;27.80;;;;;;;;;;5282754;28;20115;-78
2023/05/11 05:17:53;;;;;;;33.72;27.67;;;;;;;;;;5281174;28;20070;-79
2023/05/11 05:20:24;;;;;;;31.10;27.02;;;;;;;;;;5282583;28;20463;-78
2023/05/11 05:22:55;;;;;;;34.38;26.67;;;;;;;;;;5281793;28;20038;-78
2023/05/11 05:25:26;;;;;;;30.58;26.38;;;;;;;;;;5282050;28;20009;-78
2023/05/11 05:27:58;;;;;;;31.10;25.88;;;;;;;;;;5282136;28;20023;-78
2023/05/11 05:30:29;;;;;;;29.42;25.15;;;;;;;;;;5283734;28;20043;-77
2023/05/11 05:33:00;;;;;;;29.73;25.40;;;;;;;;;;5283863;28;20828;-77
2023/05/11 05:35:31;;;;;;;28.38;24.50;;;;;;;;;;5283571;28;20028;-78
2023/05/11 05:38:02;;;;;;;31.48;25.88;;;;;;;;;;5281636;28;20315;-78
2023/05/11 05:40:36;;;;;;;31.10;25.87;;;;;;;;;;5282236;28;20024;-77
2023/05/11 05:43:07;;;;;;;32.50;26.85;;;;;;;;;;5281972;28;20338;-79
2023/05/11 05:45:38;;;;;;;33.08;26.20;;;;;;;;;;5280924;28;20439;-78
2023/05/11 05:48:10;;;;;;;31.30;25.63;;;;;;;;;;5282070;28;20020;-77
2023/05/11 05:50:41;;;;;;;33.40;26.58;;;;;;;;;;5281630;28;20463;-78
2023/05/11 05:53:12;;;;;;;38.15;27.95;;;;;;;;;;5281603;28;20073;-77
2023/05/11 05:55:43;;;;;;;33.90;26.88;;;;;;;;;;5281327;28;20060;-77
2023/05/11 05:58:14;;;;;;;34.25;26.65;;;;;;;;;;5281809;28;20372;-77
2023/05/11 06:00:46;;;;;;;39.08;29.60;;;;;;;;;;5280512;28;20116;-78
2023/05/11 06:03:17;;;;;;;34.35;28.67;;;;;;;;;;5282200;28;20012;-77
2023/05/11 06:05:48;;;;;;;37.20;28.83;;;;;;;;;;5281454;28;20104;-78
2023/05/11 06:08:19;;;;;;;38.58;30.48;;;;;;;;;;5281457;28;20278;-78
2023/05/11 06:10:50;;;;;;;39.28;29.77;;;;;;;;;;5286727;28;20401;-79
2023/05/11 06:13:22;;;;;;;40.60;31.43;;;;;;;;;;5287974;28;20762;-77
2023/05/11 06:15:53;;;;;;;39.42;31.98;;;;;;;;;;5290289;28;20290;-78
2023/05/11 06:18:24;;;;;;;38.05;31.25;;;;;;;;;;5289692;28;20013;-76
2023/05/11 06:20:55;;;;;;;49.53;34.78;;;;;;;;;;5287423;28;20028;-77
2023/05/11 06:23:26;;;;;;;43.75;33.35;;;;;;;;;;5288481;28;20085;-76
2023/05/11 06:25:58;;;;;;;43.30;32.23;;;;;;;;;;5287574;28;20412;-75
2023/05/11 06:28:29;;;;;;;42.25;33.58;;;;;;;;;;5287518;28;20277;-75
2023/05/11 06:31:02;;;;;;;39.53;30.83;;;;;;;;;;5288616;28;20027;-76
2023/05/11 06:33:33;;;;;;;41.55;32.13;;;;;;;;;;5287748;28;20032;-76
2023/05/11 06:36:05;;;;;;;45.67;32.38;;;;;;;;;;5287743;28;20059;-76
2023/05/11 06:38:36;;;;;;;41.72;32.35;;;;;;;;;;5288263;28;20012;-75
2023/05/11 06:41:10;;;;;;;38.13;29.63;;;;;;;;;;5288228;28;20085;-76
2023/05/11 06:43:41;;;;;;;42.15;33.40;;;;;;;;;;5287413;28;20292;-74
2023/05/11 06:46:15;;;;;;;40.63;32.67;;;;;;;;;;5288212;28;20016;-74
2023/05/11 06:48:46;;;;;;;41.45;31.60;;;;;;;;;;5287100;28;20023;-74
2023/05/11 06:51:19;;;;;;;39.38;31.88;;;;;;;;;;5288056;28;20025;-74
2023/05/11 06:53:51;;;;;;;37.70;30.52;;;;;;;;;;5287751;28;20031;-74
2023/05/11 06:56:22;;;;;;;41.65;31.10;;;;;;;;;;5287340;28;20032;-75
2023/05/11 06:58:53;;;;;;;38.30;30.73;;;;;;;;;;5287495;28;20044;-74
2023/05/11 07:01:24;;;;;;;39.78;30.55;;;;;;;;;;5288482;28;20287;-74
2023/05/11 07:03:55;;;;;;;40.10;31.60;;;;;;;;;;5286178;28;20036;-74
2023/05/11 07:06:27;;;;;;;41.30;31.38;;;;;;;;;;5287043;28;20035;-75
2023/05/11 07:08:58;;;;;;;41.40;33.17;;;;;;;;;;5286103;28;20078;-75
2023/05/11 07:11:29;;;;;;;49.13;36.20;;;;;;;;;;5287651;28;20384;-74
2023/05/11 07:14:01;;;;;;;48.92;35.70;;;;;;;;;;5288007;28;20342;-74
2023/05/11 07:16:36;;;;;;;55.45;39.75;;;;;;;;;;5286890;28;20028;-74
2023/05/11 07:19:08;;;;;;;60.67;40.15;;;;;;;;;;5286227;28;20428;-74
2023/05/11 07:21:39;;;;;;;59.35;41.75;;;;;;;;;;5282581;28;20031;-74
2023/05/11 07:24:10;;;;;;;72.55;49.88;;;;;;;;;;5282180;28;20119;-74
2023/05/11 07:26:42;;;;;;;69.28;45.88;;;;;;;;;;5280890;28;20026;-74
2023/05/11 07:29:13;;;;;;;63.38;44.85;;;;;;;;;;5280489;28;20356;-74
2023/05/11 07:31:44;;;;;;;64.23;44.17;;;;;;;;;;5279257;28;20024;-74
2023/05/11 07:34:15;;;;;;;65.72;47.65;;;;;;;;;;5281588;28;20263;-74
2023/05/11 07:36:47;;;;;;;68.55;47.25;;;;;;;;;;5281861;28;20029;-74
2023/05/11 07:39:18;;;;;;;59.67;43.38;;;;;;;;;;5281964;28;20020;-74
2023/05/11 07:41:49;;;;;;;64.40;45.05;;;;;;;;;;5282734;28;20028;-74
2023/05/11 07:44:20;;;;;;;62.65;45.20;;;;;;;;;;5284502;28;20456;-74
2023/05/11 07:46:51;;;;;;;60.93;43.13;;;;;;;;;;5283329;28;20016;-74
2023/05/11 07:49:23;;;;;;;61.17;42.30;;;;;;;;;;5284487;28;20342;-74
2023/05/11 07:51:54;;;;;;;57.25;40.85;;;;;;;;;;5282834;28;20270;-74
2023/05/11 07:54:25;;;;;;;59.70;41.90;;;;;;;;;;5284527;28;20490;-74
2023/05/11 07:56:56;;;;;;;63.55;44.72;;;;;;;;;;5283509;28;20066;-75
2023/05/11 07:59:27;;;;;;;67.03;48.50;;;;;;;;;;5283637;28;20012;-74
2023/05/11 08:01:59;;;;;;;66.50;47.78;;;;;;;;;;5283748;28;20362;-74
2023/05/11 08:04:30;;;;;;;76.28;51.28;;;;;;;;;;5283621;28;20267;-74
2023/05/11 08:07:02;;;;;;;70.70;49.72;;;;;;;;;;5282956;28;20475;-74
2023/05/11 08:09:33;;;;;;;74.97;49.65;;;;;;;;;;5283719;28;20025;-74
2023/05/11 08:12:04;;;;;;;69.40;48.80;;;;;;;;;;5283720;28;20031;-74
2023/05/11 08:14:36;;;;;;;69.22;47.30;;;;;;;;;;5282826;28;20271;-74
2023/05/11 08:17:07;;;;;;;72.30;49.60;;;;;;;;;;5283474;28;20037;-74
2023/05/11 08:19:38;;;;;;;68.30;47.07;;;;;;;;;;5282796;28;20111;-74
2023/05/11 08:22:09;;;;;;;72.85;50.25;;;;;;;;;;5283119;28;20738;-74
2023/05/11 08:24:41;;;;;;;72.88;48.20;;;;;;;;;;5283018;28;20694;-75
2023/05/11 08:27:14;;;;;;;72.20;49.00;;;;;;;;;;5282773;28;20618;-74
2023/05/11 08:29:45;;;;;;;75.63;50.92;;;;;;;;;;5282773;28;20034;-74
2023/05/11 08:32:16;;;;;;;74.57;50.85;;;;;;;;;;5283297;28;20371;-74
2023/05/11 08:34:47;;;;;;;74.57;51.10;;;;;;;;;;5282273;28;20020;-74
2023/05/11 08:37:18;;;;;;;71.45;50.03;;;;;;;;;;5283471;28;20381;-74
2023/05/11 08:39:50;;;;;;;72.15;50.03;;;;;;;;;;5282789;28;20016;-74
2023/05/11 08:42:22;;;;;;;76.60;52.10;;;;;;;;;;5282600;28;20025;-74
2023/05/11 08:44:55;;;;;;;81.22;52.42;;;;;;;;;;5282656;28;20044;-74
2023/05/11 08:47:27;;;;;;;75.70;52.75;;;;;;;;;;5283391;28;20536;-75
2023/05/11 08:49:58;;;;;;;73.88;51.72;;;;;;;;;;5281939;28;20069;-74
2023/05/11 08:52:29;;;;;;;65.85;48.22;;;;;;;;;;5279286;28;20162;-74
2023/05/11 08:55:00;;;;;;;73.05;51.00;;;;;;;;;;5281801;28;20051;-74
2023/05/11 08:57:33;;;;;;;74.93;50.72;;;;;;;;;;5282353;28;20051;-74
2023/05/11 09:00:04;;;;;;;75.90;52.90;;;;;;;;;;5282430;28;20048;-75
2023/05/11 09:02:35;;;;;;;77.53;54.53;;;;;;;;;;5281549;28;20067;-76
2023/05/11 09:05:07;;;;;;;78.13;56.08;;;;;;;;;;5282485;28;20024;-76
2023/05/11 09:07:40;;;;;;;79.72;55.33;;;;;;;;;;5281846;28;20024;-75
2023/05/11 09:10:12;;;;;;;81.53;56.40;;;;;;;;;;5281815;28;20470;-76
2023/05/11 09:12:43;;;;;;;76.45;52.95;;;;;;;;;;5281916;28;20085;-76
2023/05/11 09:15:14;;;;;;;78.40;55.63;;;;;;;;;;5282509;28;20009;-75
2023/05/11 09:17:45;;;;;;;76.47;52.57;;;;;;;;;;5280930;28;20271;-75
2023/05/11 09:20:23;;;;;;;72.65;51.25;;;;;;;;;;5280640;28;20274;-76
2023/05/11 09:22:54;;;;;;;87.38;57.00;;;;;;;;;;5281718;28;20020;-76
2023/05/11 09:25:27;;;;;;;75.35;54.00;;;;;;;;;;5281765;28;20482;-76
2023/05/11 09:27:58;;;;;;;76.28;53.90;;;;;;;;;;5281803;28;20013;-76
2023/05/11 09:30:30;;;;;;;74.70;53.83;;;;;;;;;;5281378;28;20396;-76
2023/05/11 09:33:02;;;;;;;79.65;53.47;;;;;;;;;;5281950;28;20023;-76
2023/05/11 09:35:33;;;;;;;69.82;51.67;;;;;;;;;;5282269;28;20024;-76
2023/05/11 09:38:07;;;;;;;74.03;53.83;;;;;;;;;;5281222;28;20016;-76
2023/05/11 09:40:39;;;;;;;72.35;52.63;;;;;;;;;;5281728;28;20013;-76
2023/05/11 09:43:19;;;;;;;73.50;53.08;;;;;;;;;;5282063;28;20095;-76
2023/05/11 09:45:52;;;;;;;76.78;52.42;;;;;;;;;;5280369;28;20025;-76
2023/05/11 09:48:30;;;;;;;74.45;53.90;;;;;;;;;;5282244;28;20375;-76
2023/05/11 09:51:03;;;;;;;75.82;52.72;;;;;;;;;;5281828;28;20031;-76
2023/05/11 09:53:34;;;;;;;72.78;51.38;;;;;;;;;;5280932;28;20028;-76
2023/05/11 09:56:05;;;;;;;75.53;51.00;;;;;;;;;;5281264;28;20028;-74
2023/05/11 09:58:44;;;;;;;72.95;52.70;;;;;;;;;;5280746;28;20053;-74
2023/05/11 10:01:16;;;;;;;73.07;52.75;;;;;;;;;;5282024;28;20419;-76
2023/05/11 10:03:49;;;;;;;69.22;51.05;;;;;;;;;;5281362;28;20050;-76
2023/05/11 10:06:20;;;;;;;72.82;52.08;;;;;;;;;;5281320;28;20375;-76
2023/05/11 10:08:52;;;;;;;69.55;48.10;;;;;;;;;;5281397;28;20019;-76
2023/05/11 10:11:24;;;;;;;70.32;49.72;;;;;;;;;;5282001;28;20365;-76
2023/05/11 10:13:55;;;;;;;67.97;46.67;;;;;;;;;;5280417;28;20024;-78
2023/05/11 10:16:27;;;;;;;67.53;49.40;;;;;;;;;;5281433;28;20298;-78
2023/05/11 10:18:58;;;;;;;67.65;48.50;;;;;;;;;;5280720;28;20506;-77
2023/05/11 10:21:30;;;;;;;62.55;46.38;;;;;;;;;;5280790;28;20045;-79
2023/05/11 10:24:02;;;;;;;59.45;44.78;;;;;;;;;;5281513;28;20017;-78
2023/05/11 10:26:33;;;;;;;60.67;44.58;;;;;;;;;;5280969;28;20055;-78
2023/05/11 10:29:05;;;;;;;59.90;42.60;;;;;;;;;;5281026;28;20040;-77
2023/05/11 10:31:36;;;;;;;58.42;41.42;;;;;;;;;;5279373;28;20028;-77
2023/05/11 10:34:09;;;;;;;55.63;40.28;;;;;;;;;;5278566;28;20012;-78
2023/05/11 10:36:40;;;;;;;60.67;44.03;;;;;;;;;;5279165;28;20517;-77
2023/05/11 10:39:11;;;;;;;60.03;44.42;;;;;;;;;;5279606;28;20099;-78
2023/05/11 10:41:59;;;;;;;65.30;45.30;;;;;;;;;;5278328;28;20527;-77
2023/05/11 10:44:33;;;;;;;63.60;44.78;;;;;;;;;;5279425;28;20253;-77
2023/05/11 10:47:22;;;;;;;61.25;43.83;;;;;;;;;;5281175;28;20028;-78
2023/05/11 10:50:06;;;;;;;66.20;46.08;;;;;;;;;;5280905;28;20422;-77
2023/05/11 10:52:49;;;;;;;69.15;47.10;;;;;;;;;;5280820;28;20042;-76
2023/05/11 10:55:38;;;;;;;61.83;45.67;;;;;;;;;;5280066;28;20062;-76
2023/05/11 10:58:14;;;;;;;69.55;47.20;;;;;;;;;;5283851;28;20109;-76
2023/05/11 11:01:04;;;;;;;66.30;46.47;;;;;;;;;;5284408;28;20020;-76
2023/05/11 11:03:35;;;;;;;66.40;47.63;;;;;;;;;;5283895;28;20043;-76
2023/05/11 11:06:20;;;;;;;67.95;46.28;;;;;;;;;;5284966;28;20021;-76
2023/05/11 11:08:58;;;;;;;62.30;45.45;;;;;;;;;;5283565;28;20032;-77
2023/05/11 11:11:37;;;;;;;62.08;44.25;;;;;;;;;;5284950;28;20027;-76
2023/05/11 11:14:09;;;;;;;65.05;44.38;;;;;;;;;;5282820;28;20035;-77
2023/05/11 11:16:40;;;;;;;63.95;43.97;;;;;;;;;;5281855;28;20036;-76
2023/05/11 11:19:30;;;;;;;61.08;44.85;;;;;;;;;;5282468;28;20024;-77
2023/05/11 11:22:01;;;;;;;58.40;42.38;;;;;;;;;;5282423;28;20032;-77
2023/05/11 11:24:35;;;;;;;61.88;44.45;;;;;;;;;;5281417;28;20016;-77
2023/05/11 11:27:08;;;;;;;58.55;42.67;;;;;;;;;;5282543;28;20099;-77
2023/05/11 11:29:39;;;;;;;63.35;45.50;;;;;;;;;;5283305;28;20016;-76
2023/05/11 11:32:22;;;;;;;59.83;43.33;;;;;;;;;;5284807;28;20475;-76
2023/05/11 11:34:54;;;;;;;58.47;39.53;;;;;;;;;;5284132;28;20502;-76
2023/05/11 11:37:25;;;;;;;57.47;39.92;;;;;;;;;;5283717;28;20024;-76
2023/05/11 11:39:59;;;;;;;47.53;36.63;;;;;;;;;;5283985;28;20176;-77
2023/05/11 11:42:31;;;;;;;55.55;37.38;;;;;;;;;;5284489;28;20297;-76
2023/05/11 11:45:20;;;;;;;52.58;36.72;;;;;;;;;;5283760;28;20020;-76
2023/05/11 11:48:11;;;;;;;54.97;38.75;;;;;;;;;;5283760;28;20021;-76
2023/05/11 11:50:44;;;;;;;50.58;36.33;;;;;;;;;;5282611;28;20025;-76
2023/05/11 11:53:34;;;;;;;51.53;38.55;;;;;;;;;;5284272;28;20040;-73
2023/05/11 11:56:06;;;;;;;53.28;39.05;;;;;;;;;;5283728;28;20078;-74
2023/05/11 11:58:44;;;;;;;52.40;38.65;;;;;;;;;;5282609;28;20044;-77
2023/05/11 12:01:17;;;;;;;55.13;38.40;;;;;;;;;;5283982;28;20130;-78
2023/05/11 12:04:03;;;;;;;53.88;39.22;;;;;;;;;;5282871;28;20013;-78
2023/05/11 12:06:38;;;;;;;50.65;38.10;;;;;;;;;;5282836;28;20025;-78
2023/05/11 12:09:09;;;;;;;43.33;32.28;;;;;;;;;;5283347;28;20468;-78
2023/05/11 12:11:44;;;;;;;38.80;30.48;;;;;;;;;;5283479;28;20035;-78
2023/05/11 12:14:15;;;;;;;38.85;29.63;;;;;;;;;;5283505;28;20028;-77
2023/05/11 12:17:03;;;;;;;37.55;28.52;;;;;;;;;;5283115;28;20028;-78
2023/05/11 12:19:35;;;;;;;36.28;25.48;;;;;;;;;;5282639;28;20020;-78
2023/05/11 12:22:06;;;;;;;36.72;25.80;;;;;;;;;;5282482;28;20027;-78
2023/05/11 12:24:38;;;;;;;35.55;25.00;;;;;;;;;;5281465;28;20028;-77
2023/05/11 12:27:09;;;;;;;30.40;22.45;;;;;;;;;;5281448;28;20012;-77
2023/05/11 12:29:41;;;;;;;29.00;20.45;;;;;;;;;;5281912;28;20028;-78
2023/05/11 12:32:12;;;;;;;28.33;20.25;;;;;;;;;;5283446;28;20016;-78
2023/05/11 12:34:55;;;;;;;28.67;20.75;;;;;;;;;;5282248;28;20043;-78
2023/05/11 12:37:28;;;;;;;30.88;21.20;;;;;;;;;;5283431;28;20033;-78
2023/05/11 12:39:59;;;;;;;25.50;19.75;;;;;;;;;;5281905;28;20039;-79
2023/05/11 12:42:30;;;;;;;24.75;19.20;;;;;;;;;;5282871;28;20024;-79
2023/05/11 12:45:02;;;;;;;30.40;20.17;;;;;;;;;;5282759;28;20016;-78
2023/05/11 12:47:34;;;;;;;24.27;19.27;;;;;;;;;;5282175;28;20725;-79
2023/05/11 12:50:06;;;;;;;29.98;21.90;;;;;;;;;;5282829;28;20024;-78
2023/05/11 12:52:37;;;;;;;31.70;21.38;;;;;;;;;;5282658;28;20059;-79
2023/05/11 12:55:10;;;;;;;23.38;18.80;;;;;;;;;;5281956;28;20027;-79
2023/05/11 12:57:41;;;;;;;23.98;17.15;;;;;;;;;;5282232;28;20048;-79
2023/05/11 13:00:13;;;;;;;23.90;16.57;;;;;;;;;;5282937;28;20021;-79
2023/05/11 13:02:49;;;;;;;22.70;16.92;;;;;;;;;;5281569;28;20617;-79
2023/05/11 13:05:24;;;;;;;18.77;14.73;;;;;;;;;;5282575;28;20019;-78
2023/05/11 13:07:59;;;;;;;17.30;13.57;;;;;;;;;;5282040;28;20082;-79
2023/05/11 13:10:31;;;;;;;21.42;15.60;;;;;;;;;;5278866;28;20032;-79
2023/05/11 13:13:02;;;;;;;18.35;13.20;;;;;;;;;;5282136;28;20017;-79
2023/05/11 13:15:48;;;;;;;18.05;12.65;;;;;;;;;;5281440;28;20451;-78
2023/05/11 13:18:19;;;;;;;16.50;11.38;;;;;;;;;;5282414;28;20026;-79
2023/05/11 13:21:03;;;;;;;15.98;13.00;;;;;;;;;;5281359;28;20016;-78
2023/05/11 13:23:35;;;;;;;15.82;12.18;;;;;;;;;;5281008;28;20143;-78
2023/05/11 13:26:06;;;;;;;15.65;12.32;;;;;;;;;;5282034;28;20016;-79
2023/05/11 13:28:38;;;;;;;16.70;12.50;;;;;;;;;;5281415;28;20020;-78
2023/05/11 13:31:09;;;;;;;16.15;12.15;;;;;;;;;;5281183;28;20274;-79
2023/05/11 13:33:40;;;;;;;15.93;12.00;;;;;;;;;;5281472;28;20044;-78
2023/05/11 13:36:11;;;;;;;14.88;11.38;;;;;;;;;;5281340;28;20177;-79
2023/05/11 13:38:43;;;;;;;16.85;11.85;;;;;;;;;;5280852;28;20259;-79
2023/05/11 13:41:14;;;;;;;16.27;12.52;;;;;;;;;;5282037;28;20021;-79
2023/05/11 13:43:47;;;;;;;14.57;11.25;;;;;;;;;;5280617;28;20044;-79
2023/05/11 13:46:18;;;;;;;12.30;10.57;;;;;;;;;;5281225;28;20368;-79
2023/05/11 13:48:49;;;;;;;12.80;9.57;;;;;;;;;;5280545;28;20024;-79
2023/05/11 13:51:21;;;;;;;12.40;8.97;;;;;;;;;;5280515;28;20028;-79
2023/05/11 13:53:53;;;;;;;12.30;9.63;;;;;;;;;;5281517;28;20282;-80
2023/05/11 13:56:24;;;;;;;12.45;8.43;;;;;;;;;;5281704;28;20024;-80
2023/05/11 13:58:56;;;;;;;13.18;9.63;;;;;;;;;;5280716;28;20025;-78
2023/05/11 14:01:27;;;;;;;13.55;9.32;;;;;;;;;;5281860;28;20036;-78
2023/05/11 14:03:58;;;;;;;15.13;10.80;;;;;;;;;;5281231;28;20058;-78
2023/05/11 14:06:32;;;;;;;15.13;8.83;;;;;;;;;;5280812;28;20027;-78
2023/05/11 14:09:03;;;;;;;13.05;8.57;;;;;;;;;;5281666;28;20637;-78
2023/05/11 14:11:34;;;;;;;10.95;8.65;;;;;;;;;;5280863;28;20020;-78
2023/05/11 14:14:06;;;;;;;10.88;8.23;;;;;;;;;;5280877;28;20016;-78
2023/05/11 14:16:37;;;;;;;12.35;8.93;;;;;;;;;;5281258;28;20075;-77
2023/05/11 14:19:08;;;;;;;13.82;8.88;;;;;;;;;;5281047;28;20467;-78
2023/05/11 14:21:39;;;;;;;14.10;9.52;;;;;;;;;;5280955;28;20016;-78
2023/05/11 14:24:11;;;;;;;9.95;8.57;;;;;;;;;;5281561;28;20298;-78
2023/05/11 14:26:42;;;;;;;15.70;9.40;;;;;;;;;;5280216;28;20028;-76
2023/05/11 14:29:13;;;;;;;13.82;8.25;;;;;;;;;;5281547;28;20017;-76
2023/05/11 14:31:45;;;;;;;12.27;8.67;;;;;;;;;;5283816;28;20029;-76
2023/05/11 14:34:16;;;;;;;11.55;9.10;;;;;;;;;;5284643;28;20320;-77
2023/05/11 14:36:47;;;;;;;11.73;8.95;;;;;;;;;;5284851;28;20056;-78
2023/05/11 14:39:18;;;;;;;13.02;8.82;;;;;;;;;;5285451;28;20368;-78
2023/05/11 14:41:50;;;;;;;18.63;9.30;;;;;;;;;;5284480;28;20026;-77
2023/05/11 14:44:21;;;;;;;9.93;7.38;;;;;;;;;;5285518;28;20262;-77
2023/05/11 14:46:52;;;;;;;12.02;8.20;;;;;;;;;;5284037;28;20063;-77
2023/05/11 14:49:23;;;;;;;10.73;7.55;;;;;;;;;;5285045;28;20062;-77
2023/05/11 14:51:56;;;;;;;9.47;6.60;;;;;;;;;;5284862;28;20436;-81